Time;durP1;ratioP1;P1;durP2;ratioP2;P2;SDS_P1;SDS_P2;PMS_P1;PMS_P2;Temp;Humidity;BMP_temperature;BMP_pressure;BME280_temperature;BME280_humidity;BME280_pressure;Samples;Min_cycle;Max_cycle;Signal;HPM_P1;HPM_P2
2023/04/19 00:01:25;;;;;;;3.37;1.70;;;;;;;10.86;92.14;94763.75;5005501;28;20234;-77
2023/04/19 00:03:50;;;;;;;3.50;1.90;;;;;;;10.82;92.28;94761.53;4988814;28;20227;-76
2023/04/19 00:06:16;;;;;;;3.50;1.80;;;;;;;10.75;91.86;94757.31;5001043;28;20253;-76
2023/04/19 00:08:42;;;;;;;4.67;1.97;;;;;;;10.74;91.50;94750.50;5006695;28;20723;-76
2023/04/19 00:11:08;;;;;;;3.90;1.80;;;;;;;10.66;92.57;94759.38;4997588;28;20293;-76
2023/04/19 00:13:33;;;;;;;2.70;1.60;;;;;;;10.61;91.76;94756.56;4999349;28;20230;-76
2023/04/19 00:15:59;;;;;;;2.50;1.70;;;;;;;10.66;91.50;94764.59;4998714;28;20231;-77
2023/04/19 00:18:24;;;;;;;2.33;1.60;;;;;;;10.74;91.37;94747.88;5009762;28;20763;-77
2023/04/19 00:20:50;;;;;;;3.17;1.63;;;;;;;10.70;91.18;94754.50;5004994;28;20228;-77
2023/04/19 00:23:15;;;;;;;3.50;1.70;;;;;;;10.75;91.09;94750.28;5002984;28;20229;-77
2023/04/19 00:25:41;;;;;;;3.43;1.80;;;;;;;10.76;91.42;94748.47;5002308;28;20230;-76
2023/04/19 00:28:06;;;;;;;2.60;1.70;;;;;;;10.86;90.03;94748.88;5001382;28;20238;-77
2023/04/19 00:30:32;;;;;;;2.40;1.70;;;;;;;10.80;91.06;94740.00;5002410;28;20987;-78
2023/04/19 00:32:57;;;;;;;1.77;1.40;;;;;;;10.84;91.41;94746.44;5005838;28;20234;-78
2023/04/19 00:35:23;;;;;;;2.53;1.50;;;;;;;10.86;90.92;94741.00;5004955;28;20230;-77
2023/04/19 00:37:48;;;;;;;3.00;1.57;;;;;;;10.82;90.58;94735.38;5009950;28;20266;-77
2023/04/19 00:40:14;;;;;;;2.27;1.60;;;;;;;10.84;90.85;94738.56;5012811;28;20255;-78
2023/04/19 00:42:39;;;;;;;4.27;1.77;;;;;;;10.88;90.79;94739.00;4994559;28;20238;-78
2023/04/19 00:45:05;;;;;;;2.93;1.50;;;;;;;10.69;92.04;94734.59;5011941;28;20230;-76
2023/04/19 00:47:30;;;;;;;2.57;1.80;;;;;;;10.63;91.99;94736.22;4996562;28;20241;-77
2023/04/19 00:49:56;;;;;;;2.80;1.70;;;;;;;10.65;92.48;94736.03;5008126;28;20218;-78
2023/04/19 00:52:21;;;;;;;2.13;1.60;;;;;;;10.67;92.77;94731.38;5012905;28;20226;-77
2023/04/19 00:54:47;;;;;;;2.53;1.80;;;;;;;10.74;92.99;94735.59;5004701;28;20237;-77
2023/04/19 00:57:13;;;;;;;3.57;2.20;;;;;;;10.75;92.21;94737.19;4998142;28;20225;-77
2023/04/19 00:59:39;;;;;;;4.57;2.00;;;;;;;10.81;91.45;94725.13;5021450;28;21053;-77
2023/04/19 01:02:06;;;;;;;2.57;1.90;;;;;;;10.84;90.94;94729.94;5012573;28;20250;-78
2023/04/19 01:04:32;;;;;;;3.13;1.90;;;;;;;10.76;91.17;94727.53;5001006;28;20230;-77
2023/04/19 01:06:57;;;;;;;2.03;1.73;;;;;;;10.76;91.19;94727.53;4995549;28;20233;-77
2023/04/19 01:09:23;;;;;;;3.23;1.80;;;;;;;10.80;90.49;94723.50;5014854;28;20233;-78
2023/04/19 01:11:49;;;;;;;2.93;1.90;;;;;;;10.82;90.69;94716.22;5013839;28;20601;-76
2023/04/19 01:14:15;;;;;;;3.43;2.00;;;;;;;10.77;90.88;94719.47;4980413;28;20225;-77
2023/04/19 01:16:41;;;;;;;3.67;2.00;;;;;;;10.68;91.95;94719.88;5022171;28;20302;-78
2023/04/19 01:19:06;;;;;;;4.63;2.20;;;;;;;10.55;92.28;94715.50;5008560;28;20615;-77
2023/04/19 01:21:32;;;;;;;3.17;2.00;;;;;;;10.68;92.33;94719.88;5024616;28;20712;-80
2023/04/19 01:23:57;;;;;;;3.20;2.10;;;;;;;10.56;93.03;94727.56;5010629;28;20289;-78
2023/04/19 01:26:23;;;;;;;4.80;2.00;;;;;;;10.69;92.49;94722.31;4998010;28;20234;-77
2023/04/19 01:28:49;;;;;;;5.00;2.30;;;;;;;10.73;92.24;94731.38;4983577;28;20253;-78
2023/04/19 01:31:14;;;;;;;3.37;2.20;;;;;;;10.84;92.12;94724.72;4997326;28;20268;-77
2023/04/19 01:33:40;;;;;;;3.43;2.30;;;;;;;10.90;91.71;94728.28;5011018;28;20233;-77
2023/04/19 01:36:06;;;;;;;3.97;2.20;;;;;;;10.90;91.89;94729.09;4987308;28;20723;-77
2023/04/19 01:38:31;;;;;;;5.17;2.40;;;;;;;10.92;91.87;94726.28;5012344;28;20794;-77
2023/04/19 01:40:56;;;;;;;4.87;2.40;;;;;;;10.83;92.78;94720.47;5005852;28;20227;-78
2023/04/19 01:43:22;;;;;;;4.00;2.30;;;;;;;10.80;92.85;94713.84;5019587;28;20672;-77
2023/04/19 01:45:48;;;;;;;3.77;2.33;;;;;;;10.69;93.46;94717.09;5011455;28;20249;-77
2023/04/19 01:48:13;;;;;;;3.37;2.40;;;;;;;10.76;93.55;94709.22;4995944;28;20222;-77
2023/04/19 01:50:39;;;;;;;3.93;2.50;;;;;;;10.75;93.27;94710.22;5004240;28;20237;-77
2023/04/19 01:53:04;;;;;;;3.83;2.50;;;;;;;10.83;93.16;94723.91;4996925;28;20626;-77
2023/04/19 01:55:30;;;;;;;3.13;2.40;;;;;;;10.73;93.78;94715.66;4997549;28;20230;-78
2023/04/19 01:57:55;;;;;;;4.57;2.53;;;;;;;10.83;92.93;94717.84;4997521;28;20253;-78
2023/04/19 02:00:21;;;;;;;3.67;2.50;;;;;;;10.74;93.73;94709.44;4997952;28;20237;-76
2023/04/19 02:02:46;;;;;;;3.93;2.60;;;;;;;10.72;93.56;94708.81;4980142;28;20234;-78
2023/04/19 02:05:12;;;;;;;4.07;2.37;;;;;;;10.75;93.67;94715.44;4981148;28;20223;-77
2023/04/19 02:07:37;;;;;;;5.97;2.60;;;;;;;10.68;93.38;94715.47;5002139;28;20420;-77
2023/04/19 02:10:04;;;;;;;5.13;2.67;;;;;;;10.54;94.04;94707.84;4987281;28;20231;-77
2023/04/19 02:12:30;;;;;;;3.53;2.60;;;;;;;10.47;94.46;94709.66;5011900;28;20284;-77
2023/04/19 02:14:56;;;;;;;3.90;2.40;;;;;;;10.41;94.84;94711.28;4994312;28;20227;-76
2023/04/19 02:17:25;;;;;;;3.80;2.50;;;;;;;10.52;94.29;94705.44;4997038;28;20811;-76
2023/04/19 02:19:51;;;;;;;4.03;2.43;;;;;;;10.51;94.28;94706.44;4995622;28;20327;-78
2023/04/19 02:22:17;;;;;;;3.37;2.60;;;;;;;10.46;95.09;94708.06;4995606;28;20231;-77
2023/04/19 02:24:42;;;;;;;4.00;2.77;;;;;;;10.32;95.57;94712.50;4980984;28;20226;-76
2023/04/19 02:27:08;;;;;;;4.23;2.60;;;;;;;10.40;95.04;94696.59;5013599;28;20242;-77
2023/04/19 02:29:33;;;;;;;6.33;2.80;;;;;;;10.45;94.63;94699.41;5001143;28;20226;-77
2023/04/19 02:31:59;;;;;;;5.37;2.97;;;;;;;10.41;95.06;94707.88;5010492;28;20231;-76
2023/04/19 02:34:26;;;;;;;4.33;2.80;;;;;;;10.48;94.90;94703.44;5003642;28;20234;-77
2023/04/19 02:36:51;;;;;;;4.83;3.00;;;;;;;10.46;94.75;94705.47;4988016;28;20230;-77
2023/04/19 02:39:17;;;;;;;3.13;2.70;;;;;;;10.39;95.10;94708.06;5018936;28;20230;-77
2023/04/19 02:41:42;;;;;;;3.90;2.83;;;;;;;10.42;94.57;94707.66;4993288;28;20319;-78
2023/04/19 02:44:08;;;;;;;4.00;3.10;;;;;;;10.41;94.58;94703.44;5013855;28;20282;-75
2023/04/19 02:46:33;;;;;;;4.07;2.93;;;;;;;10.37;94.95;94704.03;5003429;28;21274;-77
2023/04/19 02:49:02;;;;;;;4.07;2.90;;;;;;;10.38;94.82;94708.28;5026418;28;20289;-76
2023/04/19 02:51:28;;;;;;;3.63;3.00;;;;;;;10.31;94.36;94710.91;5004977;28;20239;-77
2023/04/19 02:53:53;;;;;;;4.80;3.00;;;;;;;10.26;94.75;94702.88;5000367;28;20234;-77
2023/04/19 02:56:19;;;;;;;4.60;3.17;;;;;;;10.29;94.81;94705.09;4984564;28;20249;-77
2023/04/19 02:58:44;;;;;;;4.40;3.20;;;;;;;10.38;94.24;94710.91;5000357;28;20230;-76
2023/04/19 03:01:10;;;;;;;5.23;3.37;;;;;;;10.39;93.70;94700.22;5013325;28;20241;-77
2023/04/19 03:03:35;;;;;;;4.60;3.27;;;;;;;10.41;94.72;94708.66;5006732;28;20226;-77
2023/04/19 03:06:01;;;;;;;3.77;3.07;;;;;;;10.45;94.83;94706.47;5000456;28;20623;-77
2023/04/19 03:08:27;;;;;;;6.83;3.40;;;;;;;10.35;94.27;94699.03;5002159;28;20464;-77
2023/04/19 03:10:52;;;;;;;6.33;3.57;;;;;;;10.35;94.51;94703.44;4996765;28;20230;-78
2023/04/19 03:13:18;;;;;;;8.10;3.60;;;;;;;10.26;94.75;94709.91;4997662;28;20260;-77
2023/04/19 03:15:43;;;;;;;4.97;3.57;;;;;;;10.23;94.85;94700.66;5022607;28;20237;-77
2023/04/19 03:18:09;;;;;;;9.13;3.57;;;;;;;10.18;94.96;94705.69;5022033;28;20289;-77
2023/04/19 03:20:34;;;;;;;5.23;3.47;;;;;;;10.28;95.02;94707.88;5009931;28;20219;-76
2023/04/19 03:23:00;;;;;;;5.00;3.60;;;;;;;10.25;94.65;94698.63;5016085;28;20238;-78
2023/04/19 03:25:25;;;;;;;5.40;3.73;;;;;;;10.19;94.73;94701.25;5016714;28;20313;-77
2023/04/19 03:27:51;;;;;;;5.10;3.60;;;;;;;10.18;95.35;94703.06;5001945;28;20253;-75
2023/04/19 03:30:17;;;;;;;4.77;3.60;;;;;;;10.17;95.25;94698.84;5009559;28;20254;-77
2023/04/19 03:32:42;;;;;;;5.00;3.67;;;;;;;10.11;95.14;94704.84;5004230;28;20226;-77
2023/04/19 03:35:08;;;;;;;6.97;3.80;;;;;;;10.16;95.05;94705.06;4981385;28;20712;-77
2023/04/19 03:37:34;;;;;;;5.83;3.70;;;;;;;10.19;94.75;94709.09;4990014;28;20260;-77
2023/04/19 03:40:00;;;;;;;5.60;3.80;;;;;;;10.11;95.07;94705.69;4997543;28;20222;-77
2023/04/19 03:42:25;;;;;;;4.90;3.80;;;;;;;10.08;95.21;94702.63;4999215;28;20218;-76
2023/04/19 03:44:51;;;;;;;5.13;3.73;;;;;;;10.03;95.00;94702.44;5015046;28;20676;-78
2023/04/19 03:47:16;;;;;;;6.03;3.87;;;;;;;10.04;95.06;94699.63;5001004;28;20738;-77
2023/04/19 03:49:42;;;;;;;5.77;4.00;;;;;;;10.09;95.31;94702.44;5000274;28;20300;-76
2023/04/19 03:52:07;;;;;;;5.40;3.80;;;;;;;10.14;94.99;94702.69;4995031;28;20638;-76
2023/04/19 03:54:33;;;;;;;5.33;3.90;;;;;;;9.99;95.51;94699.41;5014552;28;20242;-77
2023/04/19 03:56:59;;;;;;;5.40;4.00;;;;;;;10.04;95.29;94702.25;4997576;28;20751;-77
2023/04/19 03:59:24;;;;;;;5.13;3.87;;;;;;;10.08;95.27;94703.44;5003836;28;20234;-78
2023/04/19 04:01:50;;;;;;;5.97;4.00;;;;;;;10.12;95.19;94701.25;5004076;28;20235;-78
2023/04/19 04:04:15;;;;;;;7.13;3.80;;;;;;;10.20;94.79;94695.81;5002796;28;20237;-77
2023/04/19 04:06:41;;;;;;;6.07;4.17;;;;;;;10.06;95.58;94700.22;5006882;28;20285;-78
2023/04/19 04:09:06;;;;;;;5.70;4.00;;;;;;;10.08;95.08;94698.22;4996332;28;20245;-77
2023/04/19 04:11:32;;;;;;;5.70;3.77;;;;;;;10.14;95.28;94699.25;5004010;28;20325;-78
2023/04/19 04:13:57;;;;;;;7.13;3.90;;;;;;;10.12;94.87;94709.13;4987163;28;20747;-77
2023/04/19 04:16:23;;;;;;;5.67;4.00;;;;;;;10.05;95.50;94716.91;4999294;28;20231;-77
2023/04/19 04:18:48;;;;;;;5.97;3.90;;;;;;;9.97;95.58;94716.31;5019895;28;20229;-77
2023/04/19 04:21:14;;;;;;;6.17;4.13;;;;;;;10.02;94.77;94713.91;5012559;28;20231;-75
2023/04/19 04:23:40;;;;;;;6.97;4.10;;;;;;;10.08;94.92;94716.50;5007903;28;20230;-78
2023/04/19 04:26:08;;;;;;;5.57;4.00;;;;;;;10.07;95.30;94716.72;5019721;28;20284;-77
2023/04/19 04:28:34;;;;;;;7.73;4.23;;;;;;;9.92;95.54;94721.34;4998243;28;20314;-76
2023/04/19 04:31:02;;;;;;;5.43;3.90;;;;;;;9.97;95.20;94721.53;5011144;28;20306;-77
2023/04/19 04:33:28;;;;;;;7.87;4.33;;;;;;;9.91;95.53;94719.75;4998545;28;20792;-79
2023/04/19 04:35:54;;;;;;;8.30;4.43;;;;;;;9.88;95.76;94720.13;5007539;28;20929;-79
2023/04/19 04:38:20;;;;;;;5.50;4.10;;;;;;;9.82;95.71;94720.91;4997489;28;20305;-77
2023/04/19 04:40:54;;;;;;;8.23;4.70;;;;;;;9.86;95.94;94716.91;5019906;28;20226;-79
2023/04/19 04:43:24;;;;;;;6.30;4.27;;;;;;;10.02;95.45;94713.91;5018376;28;20734;-76
2023/04/19 04:45:50;;;;;;;6.43;4.20;;;;;;;9.85;95.79;94716.09;4995358;28;20373;-77
2023/04/19 04:48:15;;;;;;;6.23;4.50;;;;;;;9.91;95.87;94719.75;4979159;28;20696;-77
2023/04/19 04:50:41;;;;;;;8.20;4.87;;;;;;;10.01;95.11;94720.94;4995938;28;20227;-76
2023/04/19 04:53:09;;;;;;;8.80;5.00;;;;;;;9.94;95.72;94721.94;4994816;28;20238;-78
2023/04/19 04:55:35;;;;;;;7.07;4.47;;;;;;;10.12;95.23;94719.56;5013220;28;20230;-78
2023/04/19 04:58:00;;;;;;;7.07;4.50;;;;;;;10.09;94.88;94722.56;4995536;28;20337;-77
2023/04/19 05:00:26;;;;;;;7.53;4.40;;;;;;;10.24;94.44;94722.38;4988295;28;20332;-76
2023/04/19 05:02:51;;;;;;;8.27;4.97;;;;;;;10.20;94.64;94721.97;4996956;28;20257;-77
2023/04/19 05:05:17;;;;;;;5.77;4.50;;;;;;;10.14;94.43;94723.59;5003932;28;20222;-78
2023/04/19 05:07:42;;;;;;;6.90;4.83;;;;;;;10.15;94.78;94729.59;4994898;28;20231;-77
2023/04/19 05:10:08;;;;;;;9.03;4.67;;;;;;;10.17;94.48;94722.38;5003685;28;21270;-79
2023/04/19 05:12:35;;;;;;;8.20;4.60;;;;;;;10.21;94.44;94728.81;5000725;28;20288;-76
2023/04/19 05:15:00;;;;;;;6.43;4.50;;;;;;;10.09;95.22;94725.97;4980218;28;20225;-76
2023/04/19 05:17:26;;;;;;;6.70;4.60;;;;;;;10.19;94.51;94730.84;4997548;28;20235;-75
2023/04/19 05:19:53;;;;;;;8.03;4.60;;;;;;;10.25;94.71;94730.00;4996371;28;20234;-77
2023/04/19 05:22:19;;;;;;;8.43;5.10;;;;;;;10.30;94.75;94734.63;5006497;28;20238;-75
2023/04/19 05:24:44;;;;;;;7.10;4.53;;;;;;;10.45;94.01;94730.00;5006762;28;20230;-75
2023/04/19 05:27:10;;;;;;;7.53;4.63;;;;;;;10.59;93.59;94728.97;5011776;28;20621;-75
2023/04/19 05:29:35;;;;;;;7.87;4.70;;;;;;;10.55;93.05;94736.44;5000677;28;20304;-74
2023/04/19 05:32:01;;;;;;;7.47;4.80;;;;;;;10.67;93.11;94731.38;4978016;28;20253;-75
2023/04/19 05:34:26;;;;;;;6.87;4.67;;;;;;;10.59;93.29;94732.41;4996888;28;20908;-74
2023/04/19 05:36:52;;;;;;;7.40;4.70;;;;;;;10.55;93.61;94736.44;5017543;28;20242;-74
2023/04/19 05:39:18;;;;;;;8.70;4.60;;;;;;;10.71;92.54;94732.56;5020020;28;20291;-74
2023/04/19 05:41:43;;;;;;;6.97;4.90;;;;;;;10.74;92.49;94725.13;5007168;28;20235;-75
2023/04/19 05:44:08;;;;;;;8.07;4.77;;;;;;;10.73;92.48;94733.19;5017570;28;20241;-74
2023/04/19 05:46:35;;;;;;;7.07;4.60;;;;;;;10.63;92.52;94725.75;4996154;28;20269;-75
2023/04/19 05:49:01;;;;;;;8.20;4.70;;;;;;;10.73;92.35;94728.75;5018515;28;20238;-74
2023/04/19 05:51:27;;;;;;;7.97;4.80;;;;;;;10.79;92.23;94732.38;5009648;28;20253;-75
2023/04/19 05:53:53;;;;;;;8.40;4.90;;;;;;;10.97;91.67;94731.69;4996827;28;20770;-74
2023/04/19 05:56:18;;;;;;;8.33;5.10;;;;;;;11.06;91.72;94743.56;4977500;28;20257;-75
2023/04/19 05:58:44;;;;;;;10.47;5.07;;;;;;;10.92;91.59;94737.56;5018109;28;20219;-74
2023/04/19 06:01:09;;;;;;;7.33;5.10;;;;;;;10.96;91.35;94730.91;4993163;28;20234;-74
2023/04/19 06:03:35;;;;;;;8.43;4.70;;;;;;;11.05;91.04;94744.56;4998476;28;20233;-74
2023/04/19 06:06:00;;;;;;;9.63;4.80;;;;;;;10.94;91.19;94743.38;5000292;28;20222;-74
2023/04/19 06:08:26;;;;;;;7.37;4.63;;;;;;;10.95;91.23;94742.41;5009710;28;20230;-74
2023/04/19 06:10:53;;;;;;;7.20;4.53;;;;;;;10.98;91.10;94743.78;5003673;28;20237;-75
2023/04/19 06:13:18;;;;;;;8.20;4.77;;;;;;;11.04;90.82;94750.81;4991582;28;20261;-74
2023/04/19 06:15:44;;;;;;;7.90;4.40;;;;;;;11.20;90.37;94735.44;4999545;28;20684;-75
2023/04/19 06:18:10;;;;;;;8.87;4.60;;;;;;;11.14;90.33;94740.72;5012784;28;20651;-75
2023/04/19 06:20:38;;;;;;;10.00;5.13;;;;;;;11.12;91.17;94742.75;5001391;28;20308;-76
2023/04/19 06:23:03;;;;;;;7.37;4.73;;;;;;;11.24;90.40;94744.50;4989740;28;20242;-74
2023/04/19 06:25:30;;;;;;;7.17;4.90;;;;;;;11.20;90.49;94739.91;5000572;28;20487;-75
2023/04/19 06:27:55;;;;;;;6.93;4.33;;;;;;;11.28;89.89;94743.06;5015856;28;20233;-75
2023/04/19 06:30:21;;;;;;;8.33;4.53;;;;;;;11.43;89.65;94735.75;5018241;28;20226;-75
2023/04/19 06:32:46;;;;;;;8.37;4.70;;;;;;;11.65;88.94;94744.13;5006758;28;20230;-75
2023/04/19 06:35:13;;;;;;;7.27;4.97;;;;;;;11.62;88.83;94743.72;5018448;28;21103;-75
2023/04/19 06:37:38;;;;;;;6.90;4.83;;;;;;;11.64;88.91;94745.13;5000284;28;20226;-75
2023/04/19 06:40:07;;;;;;;8.70;4.80;;;;;;;11.81;87.84;94735.78;5023485;28;20241;-76
2023/04/19 06:42:35;;;;;;;7.17;4.70;;;;;;;12.00;87.38;94742.72;4981122;28;20328;-74
2023/04/19 06:45:01;;;;;;;8.20;4.80;;;;;;;12.24;86.54;94748.19;4989714;28;20234;-75
2023/04/19 06:47:26;;;;;;;9.87;4.87;;;;;;;12.18;86.29;94748.03;5006790;28;20241;-75
2023/04/19 06:49:52;;;;;;;8.77;4.70;;;;;;;12.18;86.55;94750.66;4998668;28;20227;-74
2023/04/19 06:52:18;;;;;;;8.30;4.87;;;;;;;12.25;85.82;94739.31;4990983;28;20231;-75
2023/04/19 06:54:50;;;;;;;8.50;4.90;;;;;;;12.36;85.47;94751.72;5003581;28;20218;-75
2023/04/19 06:57:16;;;;;;;10.50;4.77;;;;;;;12.44;84.78;94754.88;5022757;28;20314;-75
2023/04/19 06:59:41;;;;;;;7.70;4.70;;;;;;;12.18;85.13;94759.56;4997882;28;20309;-75
2023/04/19 07:02:07;;;;;;;7.93;4.70;;;;;;;12.28;85.05;94759.84;5014242;28;20824;-76
2023/04/19 07:04:33;;;;;;;8.40;4.80;;;;;;;12.31;85.43;94762.06;5006684;28;20246;-75
2023/04/19 07:06:59;;;;;;;6.80;4.53;;;;;;;12.31;85.08;94757.63;5004139;28;20234;-75
2023/04/19 07:09:25;;;;;;;6.30;4.40;;;;;;;12.25;85.96;94757.69;4998976;28;20712;-75
2023/04/19 07:11:50;;;;;;;7.73;4.70;;;;;;;12.53;84.46;94766.75;4997731;28;20244;-75
2023/04/19 07:14:18;;;;;;;6.73;4.27;;;;;;;12.29;84.42;94766.72;5012622;28;20254;-75
2023/04/19 07:16:44;;;;;;;8.63;4.47;;;;;;;12.39;84.60;94761.81;5022859;28;20226;-75
2023/04/19 07:19:10;;;;;;;8.00;4.70;;;;;;;12.44;84.62;94759.34;4997896;28;20227;-75
2023/04/19 07:21:37;;;;;;;6.90;4.40;;;;;;;12.27;85.00;94753.03;5004522;28;20323;-75
2023/04/19 07:24:02;;;;;;;9.10;4.90;;;;;;;12.36;84.59;94763.03;4997921;28;20933;-76
2023/04/19 07:26:28;;;;;;;10.43;4.60;;;;;;;12.38;84.71;94762.81;4996800;28;20234;-75
2023/04/19 07:28:53;;;;;;;7.20;4.47;;;;;;;12.25;85.64;94768.19;4997573;28;20229;-74
2023/04/19 07:31:20;;;;;;;7.10;4.40;;;;;;;12.12;85.71;94759.38;5016886;28;20629;-75
2023/04/19 07:33:45;;;;;;;6.63;4.23;;;;;;;12.35;85.49;94758.00;4985819;28;20222;-75
2023/04/19 07:36:11;;;;;;;7.47;4.30;;;;;;;12.28;84.52;94765.09;4991374;28;20239;-75
2023/04/19 07:38:36;;;;;;;9.33;4.80;;;;;;;12.35;84.84;94768.47;5003765;28;20603;-75
2023/04/19 07:41:04;;;;;;;6.33;4.43;;;;;;;12.44;84.19;94764.59;4998853;28;20230;-75
2023/04/19 07:43:29;;;;;;;6.40;4.50;;;;;;;12.55;83.71;94756.81;5001768;28;20261;-76
2023/04/19 07:45:55;;;;;;;6.83;4.23;;;;;;;12.61;83.41;94757.78;4995621;28;20645;-76
2023/04/19 07:48:21;;;;;;;7.37;4.33;;;;;;;12.68;83.96;94764.56;5015438;28;20253;-75
2023/04/19 07:50:46;;;;;;;8.17;4.30;;;;;;;12.53;83.93;94760.69;4994709;28;20285;-75
2023/04/19 07:53:12;;;;;;;7.57;4.37;;;;;;;12.48;84.08;94763.94;4996422;28;20241;-76
2023/04/19 07:55:38;;;;;;;8.23;4.17;;;;;;;12.43;83.44;94758.53;4977408;28;20642;-76
2023/04/19 07:58:03;;;;;;;6.50;3.80;;;;;;;12.34;84.73;94767.69;5004787;28;20267;-76
2023/04/19 08:00:29;;;;;;;5.97;3.90;;;;;;;12.42;83.60;94762.16;5015834;28;20222;-75
2023/04/19 08:02:55;;;;;;;6.00;3.87;;;;;;;12.66;83.23;94766.59;4999762;28;20235;-77
2023/04/19 08:05:21;;;;;;;10.20;3.90;;;;;;;12.40;83.45;94766.84;5000536;28;20237;-75
2023/04/19 08:07:47;;;;;;;6.53;3.80;;;;;;;12.44;83.41;94764.59;5004493;28;20238;-75
2023/04/19 08:10:12;;;;;;;5.40;3.70;;;;;;;12.53;83.19;94760.69;5007365;28;20231;-76
2023/04/19 08:12:38;;;;;;;6.40;4.30;;;;;;;12.53;82.59;94758.06;5012854;28;20234;-75
2023/04/19 08:15:06;;;;;;;7.20;4.03;;;;;;;12.55;83.17;94758.63;4987377;28;20235;-74
2023/04/19 08:17:31;;;;;;;6.47;4.00;;;;;;;12.39;83.88;94764.44;5004808;28;20708;-76
2023/04/19 08:19:57;;;;;;;6.97;3.90;;;;;;;12.45;83.49;94768.81;5009124;28;20223;-75
2023/04/19 08:22:22;;;;;;;6.30;4.03;;;;;;;12.54;83.50;94762.28;5000280;28;20238;-75
2023/04/19 08:24:48;;;;;;;5.07;3.60;;;;;;;12.60;82.53;94764.84;5003308;28;20231;-75
2023/04/19 08:27:14;;;;;;;4.10;3.30;;;;;;;12.47;82.90;94761.53;4994138;28;20235;-74
2023/04/19 08:29:39;;;;;;;7.97;3.60;;;;;;;12.62;82.68;94768.06;4980564;28;20253;-75
2023/04/19 08:32:05;;;;;;;6.53;3.77;;;;;;;12.67;83.27;94762.97;4981749;28;20304;-75
2023/04/19 08:34:34;;;;;;;6.47;4.10;;;;;;;12.86;82.31;94761.19;5012527;28;20226;-75
2023/04/19 08:36:59;;;;;;;13.80;4.13;;;;;;;12.98;81.58;94756.81;5007415;28;20261;-76
2023/04/19 08:39:25;;;;;;;9.50;4.30;;;;;;;13.15;81.19;94754.44;4998162;28;20630;-76
2023/04/19 08:41:50;;;;;;;5.90;3.80;;;;;;;13.18;79.71;94759.28;5000122;28;20250;-76
2023/04/19 08:44:16;;;;;;;6.27;3.63;;;;;;;13.15;80.17;94757.06;5015375;28;20670;-75
2023/04/19 08:46:42;;;;;;;5.10;3.40;;;;;;;13.27;79.77;94743.00;5023712;28;20695;-74
2023/04/19 08:49:08;;;;;;;5.37;3.33;;;;;;;13.21;78.95;94748.31;4981111;28;20231;-75
2023/04/19 08:51:34;;;;;;;6.37;3.40;;;;;;;13.30;79.14;94742.53;4978190;28;20761;-75
2023/04/19 08:53:59;;;;;;;6.27;3.40;;;;;;;13.54;78.02;94745.28;4999922;28;20226;-75
2023/04/19 08:56:25;;;;;;;5.07;3.30;;;;;;;13.55;78.05;94749.50;5003318;28;20277;-76
2023/04/19 08:58:51;;;;;;;7.90;3.50;;;;;;;13.45;77.97;94742.16;4995206;28;20221;-75
2023/04/19 09:01:16;;;;;;;6.67;4.17;;;;;;;13.29;79.32;94748.00;5008479;28;20317;-74
2023/04/19 09:03:44;;;;;;;5.30;3.60;;;;;;;13.65;78.29;94752.41;5001035;28;20233;-74
2023/04/19 09:06:10;;;;;;;5.70;3.30;;;;;;;13.70;77.41;94745.47;5011914;28;20317;-74
2023/04/19 09:08:36;;;;;;;4.63;3.10;;;;;;;13.69;77.66;94743.06;4990628;28;20236;-75
2023/04/19 09:11:02;;;;;;;3.83;2.77;;;;;;;13.66;77.00;94740.91;5012121;28;20243;-75
2023/04/19 09:13:28;;;;;;;6.63;3.57;;;;;;;13.81;77.10;94736.00;4982694;28;21081;-76
2023/04/19 09:15:55;;;;;;;5.33;3.27;;;;;;;13.87;76.93;94740.41;4997775;28;20230;-75
2023/04/19 09:18:21;;;;;;;7.40;3.33;;;;;;;13.93;77.27;94734.22;4995272;28;20305;-74
2023/04/19 09:20:47;;;;;;;4.97;3.23;;;;;;;13.82;76.94;94737.63;4998568;28;20218;-74
2023/04/19 09:23:17;;;;;;;6.50;3.13;;;;;;;13.79;76.30;94732.81;4985249;28;20992;-74
2023/04/19 09:26:00;;;;;;;4.63;3.00;;;;;;;14.06;75.73;94729.59;4981478;28;20234;-74
2023/04/19 09:28:26;;;;;;;5.17;3.07;;;;;;;14.16;74.25;94726.41;4996592;28;20684;-76
2023/04/19 09:30:51;;;;;;;3.80;2.70;;;;;;;14.39;73.01;94734.38;5011153;28;20852;-75
2023/04/19 09:33:34;;;;;;;3.70;2.77;;;;;;;14.36;73.49;94726.91;4977999;28;20251;-75
2023/04/19 09:36:01;;;;;;;4.27;2.93;;;;;;;14.44;72.71;94726.59;5020332;28;20214;-76
2023/04/19 09:38:27;;;;;;;4.23;2.60;;;;;;;14.91;71.37;94731.84;4980218;28;20214;-75
2023/04/19 09:41:04;;;;;;;3.60;2.97;;;;;;;14.70;71.41;94728.78;5020333;28;20681;-73
2023/04/19 09:43:30;;;;;;;6.47;3.10;;;;;;;15.13;70.72;94720.50;5002304;28;20234;-76
2023/04/19 09:45:56;;;;;;;6.73;3.10;;;;;;;15.22;69.96;94720.91;5009501;28;20230;-75
2023/04/19 09:48:21;;;;;;;6.13;3.30;;;;;;;15.00;70.37;94725.22;5019755;28;20253;-74
2023/04/19 09:50:58;;;;;;;4.03;2.90;;;;;;;15.29;71.65;94711.84;4992263;28;20699;-74
2023/04/19 09:53:24;;;;;;;4.17;2.90;;;;;;;15.48;69.80;94720.41;5003270;28;20277;-76
2023/04/19 09:55:49;;;;;;;5.30;2.80;;;;;;;15.70;67.14;94710.03;5009502;28;20226;-75
2023/04/19 09:58:15;;;;;;;4.83;2.80;;;;;;;15.39;68.81;94705.97;4997391;28;20263;-76
2023/04/19 10:00:43;;;;;;;5.37;2.90;;;;;;;15.58;68.17;94699.53;5027389;28;20345;-75
2023/04/19 10:03:08;;;;;;;5.43;2.83;;;;;;;15.73;68.67;94696.38;5004830;28;21360;-77
2023/04/19 10:05:38;;;;;;;5.17;2.90;;;;;;;15.26;68.99;94693.06;5011801;28;20226;-76
2023/04/19 10:08:03;;;;;;;4.60;2.90;;;;;;;15.82;67.76;94692.31;4999381;28;20313;-75
2023/04/19 10:10:29;;;;;;;3.40;2.40;;;;;;;15.90;67.18;94700.66;5001843;28;20230;-76
2023/04/19 10:12:56;;;;;;;5.97;2.80;;;;;;;15.78;67.11;94691.19;5012641;28;20672;-75
2023/04/19 10:15:21;;;;;;;3.60;2.60;;;;;;;15.27;67.83;94692.03;4990388;28;20228;-75
2023/04/19 10:17:47;;;;;;;4.77;2.67;;;;;;;15.57;67.96;94702.41;4990926;28;20238;-76
2023/04/19 10:20:21;;;;;;;3.40;2.60;;;;;;;15.68;66.82;94701.53;4983501;28;20238;-74
2023/04/19 10:22:47;;;;;;;3.97;2.83;;;;;;;15.87;67.77;94692.38;5016867;28;20322;-74
2023/04/19 10:25:14;;;;;;;4.60;2.70;;;;;;;15.80;66.72;94692.53;4997508;28;20625;-76
2023/04/19 10:27:44;;;;;;;6.67;2.80;;;;;;;16.02;65.97;94693.47;4995835;28;20686;-75
2023/04/19 10:30:19;;;;;;;4.43;3.13;;;;;;;16.02;66.45;94687.38;5014830;28;20243;-75
2023/04/19 10:32:50;;;;;;;8.10;2.90;;;;;;;16.18;66.37;94690.03;4990564;28;20241;-75
2023/04/19 10:35:20;;;;;;;5.60;2.67;;;;;;;15.96;65.11;94689.13;4984239;28;20305;-77
2023/04/19 10:38:01;;;;;;;4.17;2.50;;;;;;;15.93;65.31;94679.03;5025448;28;20727;-76
2023/04/19 10:41:00;;;;;;;3.60;2.80;;;;;;;15.93;64.93;94678.25;5022688;28;20283;-76
2023/04/19 10:43:29;;;;;;;3.10;2.37;;;;;;;15.75;64.94;94681.91;5009128;28;20246;-75
2023/04/19 10:45:59;;;;;;;4.30;2.23;;;;;;;15.94;63.87;94679.84;5022609;28;20332;-76
2023/04/19 10:48:34;;;;;;;4.80;2.40;;;;;;;16.23;63.44;94672.66;5000124;28;20226;-75
2023/04/19 10:51:01;;;;;;;3.80;2.50;;;;;;;16.38;64.19;94671.06;5009828;28;20226;-76
2023/04/19 10:53:45;;;;;;;4.83;2.77;;;;;;;16.31;62.83;94674.91;5023720;28;20226;-76
2023/04/19 10:56:10;;;;;;;3.90;2.63;;;;;;;16.68;62.15;94665.47;5017684;28;20242;-75
2023/04/19 10:59:01;;;;;;;2.97;2.67;;;;;;;16.67;62.04;94658.59;4987988;28;20257;-74
2023/04/19 11:01:51;;;;;;;4.73;2.90;;;;;;;16.49;61.99;94658.81;5032858;28;20238;-75
2023/04/19 11:04:18;;;;;;;3.20;2.60;;;;;;;16.58;60.56;94660.03;5026141;28;20299;-76
2023/04/19 11:06:49;;;;;;;4.50;2.90;;;;;;;16.96;60.67;94657.38;5010223;28;20256;-75
2023/04/19 11:09:44;;;;;;;4.27;2.90;;;;;;;17.00;60.30;94658.50;5017312;28;20323;-76
2023/04/19 11:12:19;;;;;;;3.90;3.00;;;;;;;17.10;59.68;94650.66;5014903;28;20726;-76
2023/04/19 11:14:46;;;;;;;4.00;2.90;;;;;;;17.21;59.15;94651.59;4995368;28;20232;-74
2023/04/19 11:17:17;;;;;;;6.57;3.30;;;;;;;17.28;59.19;94653.03;5002197;28;20313;-77
2023/04/19 11:19:44;;;;;;;6.47;2.90;;;;;;;17.18;58.96;94655.53;5013422;28;20655;-75
2023/04/19 11:22:10;;;;;;;4.10;3.00;;;;;;;17.43;58.41;94660.34;4999730;28;20733;-76
2023/04/19 11:24:35;;;;;;;4.10;2.80;;;;;;;16.78;58.70;94653.19;5025930;28;20221;-75
2023/04/19 11:27:01;;;;;;;4.53;2.80;;;;;;;16.94;59.91;94638.31;5025862;28;20321;-77
2023/04/19 11:29:27;;;;;;;3.90;2.80;;;;;;;17.18;59.62;94650.25;5008563;28;20343;-75
2023/04/19 11:31:52;;;;;;;3.90;3.00;;;;;;;17.39;59.23;94652.09;5006197;28;20234;-76